Wetterdaten: Dienstag, 28.07.2015
Datum Zeit Auen-Temp. Temp gefhlt Luftfeuchte Luftdruck Regen Wind Richtung Richtung Taupunkt Windben
28.07.2015 00:00 15,9 C 15,8 C 60 % 1006,8 hPa 0,0 mm 6,0 km/h (2 Bft) S 180 8,1 C 4,7 km/h (1 Bft)
28.07.2015 00:05 15,9 C 15,8 C 61 % 1006,8 hPa 0,0 mm 5,7 km/h (1 Bft) S-SW 202 8,4 C 9,6 km/h (2 Bft)
28.07.2015 00:10 16,1 C 16,0 C 60 % 1006,7 hPa 0,0 mm 5,7 km/h (1 Bft) W 270 8,3 C 5,4 km/h (1 Bft)
28.07.2015 00:15 16,1 C 16,0 C 60 % 1006,7 hPa 0,0 mm 4,9 km/h (1 Bft) W-NW 292 8,3 C 0,0 km/h (0 Bft)
28.07.2015 00:20 16,1 C 16,0 C 60 % 1006,7 hPa 0,0 mm 3,4 km/h (1 Bft) SW 225 8,3 C 8,5 km/h (2 Bft)
28.07.2015 00:25 16,1 C 16,0 C 60 % 1006,7 hPa 0,0 mm 3,6 km/h (1 Bft) SW 225 8,3 C 6,7 km/h (2 Bft)
28.07.2015 00:30 16,1 C 16,0 C 60 % 1006,6 hPa 0,0 mm 5,2 km/h (1 Bft) S 180 8,3 C 12,7 km/h (3 Bft)
28.07.2015 00:35 16,2 C 16,1 C 60 % 1006,6 hPa 0,0 mm 5,2 km/h (1 Bft) S 180 8,4 C 6,2 km/h (2 Bft)
28.07.2015 00:40 16,0 C 16,0 C 60 % 1006,6 hPa 0,0 mm 3,4 km/h (1 Bft) W-SW 247 8,2 C 0,0 km/h (0 Bft)
28.07.2015 00:45 15,9 C 15,9 C 61 % 1006,6 hPa 0,0 mm 1,6 km/h (1 Bft) S-SW 202 8,4 C 4,7 km/h (1 Bft)
28.07.2015 00:50 15,6 C 15,6 C 61 % 1006,6 hPa 0,0 mm 2,1 km/h (1 Bft) O-NO 67 8,1 C 6,2 km/h (2 Bft)
28.07.2015 00:55 15,6 C 15,6 C 61 % 1006,6 hPa 0,0 mm 2,6 km/h (1 Bft) S 180 8,1 C 3,9 km/h (1 Bft)
28.07.2015 01:00 15,7 C 15,6 C 61 % 1006,6 hPa 0,0 mm 2,8 km/h (1 Bft) S 180 8,2 C 3,9 km/h (1 Bft)
28.07.2015 01:05 15,6 C 15,5 C 62 % 1006,6 hPa 0,0 mm 3,1 km/h (1 Bft) W-SW 247 8,3 C 5,4 km/h (1 Bft)
28.07.2015 01:10 15,6 C 15,5 C 62 % 1006,6 hPa 0,0 mm 1,8 km/h (1 Bft) S 180 8,3 C 0,0 km/h (0 Bft)
28.07.2015 01:15 15,7 C 15,6 C 62 % 1006,6 hPa 0,0 mm 1,8 km/h (1 Bft) S 180 8,4 C 0,0 km/h (0 Bft)
28.07.2015 01:20 15,8 C 15,7 C 62 % 1006,6 hPa 0,0 mm 2,8 km/h (1 Bft) S-SW 202 8,5 C 7,3 km/h (2 Bft)
28.07.2015 01:25 15,8 C 15,7 C 62 % 1006,6 hPa 0,0 mm 2,8 km/h (1 Bft) S 180 8,5 C 2,6 km/h (1 Bft)
28.07.2015 01:30 15,7 C 15,7 C 63 % 1006,6 hPa 0,0 mm 1,8 km/h (1 Bft) S-SO 157 8,7 C 3,6 km/h (1 Bft)
28.07.2015 01:35 15,6 C 15,6 C 63 % 1006,6 hPa 0,0 mm 0,8 km/h (0 Bft) W-SW 247 8,6 C 0,0 km/h (0 Bft)
28.07.2015 01:40 15,6 C 15,5 C 63 % 1006,6 hPa 0,0 mm 1,3 km/h (1 Bft) S 180 8,6 C 5,7 km/h (1 Bft)
28.07.2015 01:45 15,6 C 15,5 C 63 % 1006,6 hPa 0,0 mm 1,8 km/h (1 Bft) W-SW 247 8,6 C 4,9 km/h (1 Bft)
28.07.2015 01:50 15,6 C 15,5 C 63 % 1006,5 hPa 0,0 mm 3,1 km/h (1 Bft) SO 135 8,6 C 6,2 km/h (2 Bft)
28.07.2015 01:55 15,6 C 15,5 C 63 % 1006,5 hPa 0,0 mm 3,1 km/h (1 Bft) S-SW 202 8,6 C 2,6 km/h (1 Bft)
28.07.2015 02:00 15,7 C 15,6 C 63 % 1006,5 hPa 0,0 mm 3,9 km/h (1 Bft) S 180 8,7 C 6,2 km/h (2 Bft)
28.07.2015 02:05 15,7 C 15,6 C 63 % 1006,5 hPa 0,0 mm 4,9 km/h (1 Bft) S-SW 202 8,7 C 14,0 km/h (3 Bft)
28.07.2015 02:10 15,6 C 15,5 C 63 % 1006,3 hPa 0,0 mm 4,9 km/h (1 Bft) SW 225 8,6 C 0,0 km/h (0 Bft)
28.07.2015 02:15 15,5 C 15,5 C 63 % 1006,3 hPa 0,0 mm 3,6 km/h (1 Bft) W 270 8,5 C 0,0 km/h (0 Bft)
28.07.2015 02:20 15,6 C 15,5 C 63 % 1006,3 hPa 0,0 mm 3,1 km/h (1 Bft) S-SW 202 8,6 C 3,9 km/h (1 Bft)
28.07.2015 02:25 15,6 C 15,5 C 63 % 1006,3 hPa 0,0 mm 3,9 km/h (1 Bft) S 180 8,6 C 4,9 km/h (1 Bft)
28.07.2015 02:30 15,5 C 15,4 C 63 % 1006,4 hPa 0,0 mm 4,1 km/h (1 Bft) SW 225 8,5 C 4,7 km/h (1 Bft)
28.07.2015 02:35 15,5 C 15,4 C 63 % 1006,4 hPa 0,0 mm 3,4 km/h (1 Bft) S 180 8,5 C 0,0 km/h (0 Bft)
28.07.2015 02:40 15,4 C 15,3 C 63 % 1006,4 hPa 0,0 mm 3,6 km/h (1 Bft) W-SW 247 8,4 C 10,1 km/h (2 Bft)
28.07.2015 02:45 15,3 C 15,2 C 63 % 1006,4 hPa 0,0 mm 3,4 km/h (1 Bft) SW 225 8,3 C 2,6 km/h (1 Bft)
28.07.2015 02:50 15,3 C 15,2 C 63 % 1006,2 hPa 0,0 mm 3,6 km/h (1 Bft) S 180 8,3 C 4,7 km/h (1 Bft)
28.07.2015 02:55 15,2 C 15,1 C 63 % 1006,2 hPa 0,0 mm 2,8 km/h (1 Bft) W-SW 247 8,2 C 3,6 km/h (1 Bft)
28.07.2015 03:00 15,2 C 15,1 C 63 % 1006,2 hPa 0,0 mm 2,6 km/h (1 Bft) SO 135 8,2 C 11,9 km/h (2 Bft)
28.07.2015 03:02 15,2 C 15,1 C 63 % 1006,2 hPa 0,0 mm 3,6 km/h (1 Bft) S 180 8,2 C 8,0 km/h (2 Bft)
28.07.2015 03:05 15,2 C 15,1 C 63 % 1006,2 hPa 0,0 mm 3,6 km/h (1 Bft) S 180 8,2 C 8,0 km/h (2 Bft)
28.07.2015 03:10 15,1 C 15,0 C 62 % 1006,0 hPa 0,0 mm 4,9 km/h (1 Bft) S 180 7,9 C 4,4 km/h (1 Bft)
28.07.2015 03:15 15,1 C 15,0 C 62 % 1006,0 hPa 0,0 mm 4,4 km/h (1 Bft) SW 225 7,9 C 6,5 km/h (2 Bft)
28.07.2015 03:20 14,9 C 14,8 C 63 % 1006,0 hPa 0,0 mm 3,6 km/h (1 Bft) S 180 7,9 C 5,7 km/h (1 Bft)
28.07.2015 03:25 14,9 C 14,8 C 63 % 1006,0 hPa 0,0 mm 4,1 km/h (1 Bft) SW 225 7,9 C 8,5 km/h (2 Bft)
28.07.2015 03:30 14,9 C 14,8 C 63 % 1005,9 hPa 0,0 mm 5,4 km/h (1 Bft) SW 225 7,9 C 7,0 km/h (2 Bft)
28.07.2015 03:35 14,8 C 14,7 C 63 % 1005,9 hPa 0,0 mm 5,2 km/h (1 Bft) S 180 7,8 C 6,0 km/h (2 Bft)
28.07.2015 03:40 14,7 C 14,6 C 64 % 1005,9 hPa 0,0 mm 4,1 km/h (1 Bft) S 180 8,0 C 3,6 km/h (1 Bft)
28.07.2015 03:45 14,5 C 14,5 C 64 % 1005,9 hPa 0,0 mm 3,1 km/h (1 Bft) S-SW 202 7,8 C 2,6 km/h (1 Bft)
28.07.2015 03:50 14,3 C 14,3 C 65 % 1006,0 hPa 0,0 mm 1,8 km/h (1 Bft) W-SW 247 7,8 C 5,2 km/h (1 Bft)
28.07.2015 03:55 14,1 C 14,1 C 65 % 1006,0 hPa 0,0 mm 1,3 km/h (1 Bft) SW 225 7,6 C 0,0 km/h (0 Bft)
28.07.2015 04:00 14,1 C 14,0 C 65 % 1006,0 hPa 0,0 mm 0,8 km/h (0 Bft) S-SW 202 7,6 C 2,6 km/h (1 Bft)
28.07.2015 04:05 14,4 C 14,2 C 66 % 1006,0 hPa 0,0 mm 1,3 km/h (1 Bft) S 180 8,1 C 6,0 km/h (2 Bft)
28.07.2015 04:10 14,4 C 14,3 C 66 % 1005,9 hPa 0,0 mm 3,1 km/h (1 Bft) S-SO 157 8,1 C 3,4 km/h (1 Bft)
28.07.2015 04:15 14,2 C 14,1 C 67 % 1005,9 hPa 0,0 mm 3,1 km/h (1 Bft) S 180 8,2 C 0,0 km/h (0 Bft)
28.07.2015 04:20 13,9 C 14,0 C 68 % 1005,9 hPa 0,0 mm 1,3 km/h (1 Bft) S-SO 157 8,1 C 0,0 km/h (0 Bft)
28.07.2015 04:25 13,8 C 13,9 C 69 % 1005,9 hPa 0,0 mm 1,3 km/h (1 Bft) S 180 8,2 C 5,4 km/h (1 Bft)
28.07.2015 04:30 13,7 C 13,8 C 69 % 1005,8 hPa 0,0 mm 2,6 km/h (1 Bft) NO 45 8,1 C 4,1 km/h (1 Bft)
28.07.2015 04:35 13,8 C 13,8 C 69 % 1005,8 hPa 0,0 mm 2,6 km/h (1 Bft) S 180 8,2 C 0,0 km/h (0 Bft)
28.07.2015 04:40 13,4 C 13,6 C 69 % 1005,8 hPa 0,0 mm 1,3 km/h (1 Bft) S 180 7,8 C 3,6 km/h (1 Bft)
28.07.2015 04:45 13,4 C 13,4 C 69 % 1005,8 hPa 0,0 mm 1,6 km/h (1 Bft) SW 225 7,8 C 4,7 km/h (1 Bft)
28.07.2015 04:50 13,8 C 13,7 C 69 % 1005,5 hPa 0,0 mm 2,1 km/h (1 Bft) S 180 8,2 C 0,0 km/h (0 Bft)
28.07.2015 04:55 14,0 C 13,9 C 68 % 1005,5 hPa 0,0 mm 2,1 km/h (1 Bft) W-SW 247 8,2 C 6,5 km/h (2 Bft)
28.07.2015 05:00 13,9 C 13,9 C 67 % 1005,5 hPa 0,0 mm 1,0 km/h (0 Bft) SW 225 7,9 C 0,0 km/h (0 Bft)
28.07.2015 05:05 14,1 C 14,0 C 67 % 1005,5 hPa 0,0 mm 1,8 km/h (1 Bft) S 180 8,1 C 2,6 km/h (1 Bft)
28.07.2015 05:10 14,1 C 14,0 C 66 % 1005,4 hPa 0,0 mm 2,1 km/h (1 Bft) S 180 7,8 C 5,7 km/h (1 Bft)
28.07.2015 05:15 14,1 C 14,0 C 65 % 1005,4 hPa 0,0 mm 1,6 km/h (1 Bft) SW 225 7,6 C 0,0 km/h (0 Bft)
28.07.2015 05:20 14,2 C 14,1 C 65 % 1005,4 hPa 0,0 mm 1,6 km/h (1 Bft) NW 315 7,7 C 4,1 km/h (1 Bft)
28.07.2015 05:25 14,4 C 14,3 C 64 % 1005,4 hPa 0,0 mm 2,1 km/h (1 Bft) NW 315 7,7 C 0,0 km/h (0 Bft)
28.07.2015 05:30 14,6 C 14,5 C 63 % 1005,4 hPa 0,0 mm 2,8 km/h (1 Bft) S 180 7,6 C 6,2 km/h (2 Bft)
28.07.2015 05:35 14,6 C 14,5 C 63 % 1005,4 hPa 0,0 mm 2,8 km/h (1 Bft) S-SW 202 7,6 C 2,8 km/h (1 Bft)
28.07.2015 05:40 14,5 C 14,4 C 62 % 1005,4 hPa 0,0 mm 3,6 km/h (1 Bft) S 180 7,3 C 7,0 km/h (2 Bft)
28.07.2015 05:45 14,5 C 14,4 C 62 % 1005,4 hPa 0,0 mm 3,6 km/h (1 Bft) SW 225 7,3 C 3,4 km/h (1 Bft)
28.07.2015 05:50 14,4 C 14,4 C 63 % 1005,5 hPa 0,0 mm 3,4 km/h (1 Bft) SW 225 7,4 C 4,9 km/h (1 Bft)
28.07.2015 05:55 14,6 C 14,5 C 62 % 1005,5 hPa 0,0 mm 3,4 km/h (1 Bft) S 180 7,4 C 3,9 km/h (1 Bft)
28.07.2015 06:00 14,6 C 14,6 C 62 % 1005,5 hPa 0,0 mm 3,1 km/h (1 Bft) SO 135 7,4 C 4,4 km/h (1 Bft)
28.07.2015 06:05 14,5 C 14,5 C 62 % 1005,5 hPa 0,0 mm 2,1 km/h (1 Bft) SW 225 7,3 C 0,0 km/h (0 Bft)
28.07.2015 06:10 14,6 C 14,6 C 62 % 1005,6 hPa 0,0 mm 2,1 km/h (1 Bft) SO 135 7,4 C 3,9 km/h (1 Bft)
28.07.2015 06:15 14,6 C 14,6 C 62 % 1005,6 hPa 0,0 mm 2,6 km/h (1 Bft) O-SO 112 7,4 C 4,1 km/h (1 Bft)
28.07.2015 06:20 14,6 C 14,6 C 62 % 1005,6 hPa 0,0 mm 2,1 km/h (1 Bft) S 180 7,4 C 3,1 km/h (1 Bft)
28.07.2015 06:25 14,5 C 14,6 C 62 % 1005,6 hPa 0,0 mm 1,0 km/h (0 Bft) S-SW 202 7,3 C 0,0 km/h (0 Bft)
28.07.2015 06:30 14,5 C 14,6 C 63 % 1005,5 hPa 0,0 mm 0,3 km/h (0 Bft) SW 225 7,5 C 0,0 km/h (0 Bft)
28.07.2015 06:35 14,5 C 14,6 C 63 % 1005,5 hPa 0,0 mm 0,0 km/h (0 Bft) W 270 7,5 C 0,0 km/h (0 Bft)
28.07.2015 06:40 14,4 C 14,6 C 64 % 1005,5 hPa 0,0 mm 0,0 km/h (0 Bft) W-NW 292 7,7 C 0,0 km/h (0 Bft)
28.07.2015 06:45 14,5 C 14,7 C 64 % 1005,5 hPa 0,0 mm 0,3 km/h (0 Bft) SW 225 7,8 C 0,0 km/h (0 Bft)
28.07.2015 06:50 14,5 C 14,7 C 64 % 1005,6 hPa 0,0 mm 0,3 km/h (0 Bft) SW 225 7,8 C 0,0 km/h (0 Bft)
28.07.2015 06:55 14,6 C 14,7 C 65 % 1005,6 hPa 0,0 mm 0,0 km/h (0 Bft) S 180 8,1 C 0,0 km/h (0 Bft)
28.07.2015 07:00 14,7 C 14,9 C 65 % 1005,6 hPa 0,0 mm 0,5 km/h (0 Bft) SW 225 8,2 C 0,0 km/h (0 Bft)
28.07.2015 07:05 14,7 C 15,0 C 66 % 1005,6 hPa 0,0 mm 0,5 km/h (0 Bft) N 360 8,4 C 0,0 km/h (0 Bft)
28.07.2015 07:10 14,8 C 15,1 C 66 % 1005,9 hPa 0,0 mm 0,0 km/h (0 Bft) W 270 8,5 C 0,0 km/h (0 Bft)
28.07.2015 07:15 14,8 C 15,1 C 66 % 1005,9 hPa 0,0 mm 0,0 km/h (0 Bft) S-SW 202 8,5 C 0,0 km/h (0 Bft)
28.07.2015 07:20 14,8 C 15,0 C 66 % 1005,9 hPa 0,0 mm 0,3 km/h (0 Bft) NW 315 8,5 C 5,4 km/h (1 Bft)
28.07.2015 07:25 14,9 C 15,1 C 66 % 1005,9 hPa 0,0 mm 2,3 km/h (1 Bft) S 180 8,6 C 5,2 km/h (1 Bft)
28.07.2015 07:30 14,9 C 15,2 C 66 % 1005,9 hPa 0,0 mm 4,9 km/h (1 Bft) S 180 8,6 C 7,5 km/h (2 Bft)
28.07.2015 07:35 15,0 C 15,4 C 66 % 1005,9 hPa 0,0 mm 4,1 km/h (1 Bft) S 180 8,7 C 4,9 km/h (1 Bft)
28.07.2015 07:40 15,1 C 15,8 C 66 % 1005,9 hPa 0,0 mm 3,1 km/h (1 Bft) SW 225 8,8 C 0,0 km/h (0 Bft)
28.07.2015 07:45 15,2 C 16,2 C 66 % 1005,9 hPa 0,0 mm 1,8 km/h (1 Bft) W-NW 292 8,9 C 0,0 km/h (0 Bft)
28.07.2015 07:50 15,7 C 17,5 C 66 % 1006,0 hPa 0,0 mm 1,3 km/h (1 Bft) SW 225 9,4 C 0,0 km/h (0 Bft)
28.07.2015 07:55 16,2 C 18,6 C 65 % 1006,0 hPa 0,0 mm 1,3 km/h (1 Bft) SW 225 9,6 C 4,7 km/h (1 Bft)
28.07.2015 08:00 16,8 C 21,1 C 64 % 1006,0 hPa 0,0 mm 2,8 km/h (1 Bft) W 270 10,0 C 9,6 km/h (2 Bft)
28.07.2015 08:05 17,0 C 21,4 C 62 % 1006,0 hPa 0,0 mm 3,4 km/h (1 Bft) W-NW 292 9,7 C 4,1 km/h (1 Bft)
28.07.2015 08:10 17,0 C 20,6 C 63 % 1006,1 hPa 0,0 mm 1,8 km/h (1 Bft) W-NW 292 9,9 C 0,0 km/h (0 Bft)
28.07.2015 08:15 17,2 C 20,9 C 63 % 1006,1 hPa 0,0 mm 1,8 km/h (1 Bft) W 270 10,1 C 3,1 km/h (1 Bft)
28.07.2015 08:20 17,8 C 22,2 C 63 % 1006,1 hPa 0,0 mm 2,3 km/h (1 Bft) W 270 10,7 C 3,4 km/h (1 Bft)
28.07.2015 08:25 18,0 C 22,8 C 61 % 1006,1 hPa 0,0 mm 4,4 km/h (1 Bft) W 270 10,4 C 11,7 km/h (2 Bft)
28.07.2015 08:30 17,9 C 22,4 C 62 % 1006,5 hPa 0,0 mm 6,0 km/h (2 Bft) W 270 10,5 C 17,9 km/h (3 Bft)
28.07.2015 08:35 18,0 C 22,5 C 62 % 1006,5 hPa 0,0 mm 6,2 km/h (2 Bft) W-NW 292 10,6 C 11,7 km/h (2 Bft)
28.07.2015 08:40 18,2 C 22,7 C 61 % 1006,5 hPa 0,0 mm 6,5 km/h (2 Bft) W-SW 247 10,6 C 14,0 km/h (3 Bft)
28.07.2015 08:45 18,0 C 22,3 C 60 % 1006,5 hPa 0,0 mm 9,6 km/h (2 Bft) W-SW 247 10,1 C 12,4 km/h (3 Bft)
28.07.2015 08:50 17,6 C 20,6 C 61 % 1006,9 hPa 0,0 mm 10,6 km/h (2 Bft) W 270 10,0 C 24,1 km/h (4 Bft)
28.07.2015 08:55 17,2 C 19,9 C 61 % 1006,9 hPa 0,0 mm 10,6 km/h (2 Bft) O 90 9,6 C 6,2 km/h (2 Bft)
28.07.2015 09:00 17,0 C 19,0 C 61 % 1006,9 hPa 0,0 mm 10,9 km/h (2 Bft) W-NW 292 9,4 C 16,3 km/h (3 Bft)
28.07.2015 09:03 16,9 C 18,7 C 62 % 1006,9 hPa 0,0 mm 8,8 km/h (2 Bft) W-NW 292 9,6 C 16,1 km/h (3 Bft)
28.07.2015 09:05 16,9 C 18,7 C 62 % 1006,9 hPa 0,0 mm 8,8 km/h (2 Bft) W-NW 292 9,6 C 16,1 km/h (3 Bft)
28.07.2015 09:10 16,9 C 18,6 C 62 % 1007,1 hPa 0,0 mm 9,3 km/h (2 Bft) W 270 9,6 C 13,5 km/h (3 Bft)
28.07.2015 09:15 16,8 C 18,5 C 63 % 1007,1 hPa 0,0 mm 9,3 km/h (2 Bft) NW 315 9,7 C 14,8 km/h (3 Bft)
28.07.2015 09:20 16,7 C 18,2 C 63 % 1007,1 hPa 0,0 mm 11,1 km/h (2 Bft) NW 315 9,6 C 13,2 km/h (3 Bft)
28.07.2015 09:25 16,5 C 17,9 C 63 % 1007,1 hPa 0,0 mm 11,1 km/h (2 Bft) NW 315 9,4 C 13,2 km/h (3 Bft)
28.07.2015 09:30 16,3 C 17,4 C 63 % 1007,2 hPa 0,0 mm 10,9 km/h (2 Bft) W-NW 292 9,2 C 18,1 km/h (3 Bft)
28.07.2015 09:35 16,3 C 17,4 C 64 % 1007,2 hPa 0,0 mm 10,6 km/h (2 Bft) SW 225 9,5 C 11,9 km/h (2 Bft)
28.07.2015 09:40 16,2 C 17,6 C 63 % 1007,2 hPa 0,0 mm 10,4 km/h (2 Bft) W-SW 247 9,1 C 26,2 km/h (4 Bft)
28.07.2015 09:45 16,3 C 17,6 C 63 % 1007,2 hPa 0,0 mm 9,8 km/h (2 Bft) W 270 9,2 C 12,2 km/h (2 Bft)
28.07.2015 09:50 16,4 C 18,1 C 63 % 1007,2 hPa 0,0 mm 8,8 km/h (2 Bft) W-NW 292 9,3 C 9,1 km/h (2 Bft)
28.07.2015 09:55 16,4 C 18,1 C 63 % 1007,2 hPa 0,0 mm 8,5 km/h (2 Bft) N-NW 337 9,3 C 6,0 km/h (2 Bft)
28.07.2015 10:00 16,6 C 18,4 C 64 % 1007,2 hPa 0,0 mm 6,7 km/h (2 Bft) W 270 9,8 C 9,6 km/h (2 Bft)
28.07.2015 10:05 16,7 C 18,5 C 64 % 1007,2 hPa 0,0 mm 5,7 km/h (1 Bft) W-NW 292 9,9 C 8,0 km/h (2 Bft)
28.07.2015 10:10 16,8 C 18,6 C 64 % 1007,1 hPa 0,0 mm 6,7 km/h (2 Bft) W-SW 247 10,0 C 7,8 km/h (2 Bft)
28.07.2015 10:15 16,7 C 18,7 C 64 % 1007,1 hPa 0,0 mm 7,0 km/h (2 Bft) S 180 9,9 C 3,1 km/h (1 Bft)
28.07.2015 10:20 16,7 C 18,8 C 64 % 1007,1 hPa 0,0 mm 7,3 km/h (2 Bft) NW 315 9,9 C 17,6 km/h (3 Bft)
28.07.2015 10:25 16,7 C 18,8 C 64 % 1007,1 hPa 0,0 mm 7,0 km/h (2 Bft) W-SW 247 9,9 C 20,7 km/h (4 Bft)
28.07.2015 10:30 16,9 C 19,2 C 63 % 1007,1 hPa 0,0 mm 10,6 km/h (2 Bft) W-SW 247 9,8 C 14,8 km/h (3 Bft)
28.07.2015 10:35 16,7 C 18,8 C 63 % 1007,1 hPa 0,0 mm 11,4 km/h (2 Bft) S 180 9,6 C 8,8 km/h (2 Bft)
28.07.2015 10:40 16,7 C 18,5 C 63 % 1007,1 hPa 0,0 mm 9,1 km/h (2 Bft) NW 315 9,6 C 15,5 km/h (3 Bft)
28.07.2015 10:45 17,0 C 19,4 C 63 % 1007,1 hPa 0,0 mm 9,3 km/h (2 Bft) S-SW 202 9,9 C 10,9 km/h (2 Bft)
28.07.2015 10:50 17,0 C 19,4 C 63 % 1007,1 hPa 0,0 mm 8,5 km/h (2 Bft) W 270 9,9 C 9,8 km/h (2 Bft)
28.07.2015 10:55 17,2 C 20,0 C 63 % 1007,1 hPa 0,0 mm 9,3 km/h (2 Bft) W-NW 292 10,1 C 9,3 km/h (2 Bft)
28.07.2015 11:00 17,0 C 19,5 C 63 % 1007,1 hPa 0,0 mm 8,5 km/h (2 Bft) W 270 9,9 C 15,0 km/h (3 Bft)
28.07.2015 11:05 16,9 C 19,4 C 63 % 1007,1 hPa 0,0 mm 6,5 km/h (2 Bft) W-SW 247 9,8 C 7,5 km/h (2 Bft)
28.07.2015 11:10 16,5 C 18,7 C 63 % 1007,4 hPa 0,0 mm 8,0 km/h (2 Bft) S 180 9,4 C 4,4 km/h (1 Bft)
28.07.2015 11:15 16,4 C 18,2 C 64 % 1007,4 hPa 0,0 mm 6,2 km/h (2 Bft) W 270 9,6 C 3,4 km/h (1 Bft)
28.07.2015 11:20 16,2 C 17,8 C 64 % 1007,4 hPa 0,0 mm 7,3 km/h (2 Bft) NW 315 9,4 C 8,8 km/h (2 Bft)
28.07.2015 11:25 16,3 C 17,7 C 64 % 1007,4 hPa 0,0 mm 8,8 km/h (2 Bft) W 270 9,5 C 25,4 km/h (4 Bft)
28.07.2015 11:30 16,3 C 17,6 C 64 % 1007,2 hPa 0,0 mm 9,3 km/h (2 Bft) NW 315 9,5 C 15,5 km/h (3 Bft)
28.07.2015 11:35 16,2 C 17,5 C 64 % 1007,2 hPa 0,0 mm 10,6 km/h (2 Bft) NW 315 9,4 C 15,3 km/h (3 Bft)
28.07.2015 11:40 16,1 C 17,2 C 64 % 1007,2 hPa 0,0 mm 12,2 km/h (2 Bft) NW 315 9,3 C 9,6 km/h (2 Bft)
28.07.2015 11:45 16,2 C 17,4 C 64 % 1007,2 hPa 0,0 mm 12,4 km/h (3 Bft) W 270 9,4 C 14,8 km/h (3 Bft)
28.07.2015 11:50 16,1 C 17,4 C 64 % 1007,3 hPa 0,0 mm 12,2 km/h (2 Bft) S 180 9,3 C 31,6 km/h (5 Bft)
28.07.2015 11:55 16,0 C 17,0 C 64 % 1007,3 hPa 0,0 mm 12,7 km/h (3 Bft) W-NW 292 9,2 C 14,5 km/h (3 Bft)
28.07.2015 12:00 15,9 C 16,7 C 65 % 1007,3 hPa 0,0 mm 12,4 km/h (3 Bft) SW 225 9,3 C 7,8 km/h (2 Bft)
28.07.2015 12:05 15,9 C 16,7 C 66 % 1007,3 hPa 0,0 mm 10,4 km/h (2 Bft) W 270 9,6 C 16,1 km/h (3 Bft)
28.07.2015 12:10 15,8 C 16,8 C 66 % 1007,4 hPa 0,0 mm 7,5 km/h (2 Bft) S 180 9,5 C 13,7 km/h (3 Bft)
28.07.2015 12:15 15,8 C 16,7 C 66 % 1007,4 hPa 0,0 mm 8,0 km/h (2 Bft) W-NW 292 9,5 C 9,3 km/h (2 Bft)
28.07.2015 12:20 15,9 C 16,8 C 66 % 1007,4 hPa 0,0 mm 8,5 km/h (2 Bft) W 270 9,6 C 10,9 km/h (2 Bft)
28.07.2015 12:25 15,9 C 16,8 C 66 % 1007,4 hPa 0,0 mm 8,8 km/h (2 Bft) W-NW 292 9,6 C 9,1 km/h (2 Bft)
28.07.2015 12:30 15,9 C 16,8 C 67 % 1007,2 hPa 0,0 mm 6,0 km/h (2 Bft) W-SW 247 9,8 C 4,9 km/h (1 Bft)
28.07.2015 12:35 16,0 C 17,0 C 66 % 1007,2 hPa 0,0 mm 5,7 km/h (1 Bft) W 270 9,7 C 10,1 km/h (2 Bft)
28.07.2015 12:40 16,0 C 17,1 C 66 % 1007,2 hPa 0,0 mm 6,5 km/h (2 Bft) NW 315 9,7 C 5,4 km/h (1 Bft)
28.07.2015 12:45 16,3 C 17,6 C 66 % 1007,2 hPa 0,0 mm 6,7 km/h (2 Bft) W-NW 292 9,9 C 8,0 km/h (2 Bft)
28.07.2015 12:50 16,4 C 18,4 C 66 % 1006,9 hPa 0,0 mm 7,3 km/h (2 Bft) W-NW 292 10,0 C 12,2 km/h (2 Bft)
28.07.2015 12:55 16,4 C 18,2 C 66 % 1006,9 hPa 0,0 mm 7,3 km/h (2 Bft) SO 135 10,0 C 16,1 km/h (3 Bft)
28.07.2015 13:00 16,5 C 18,6 C 66 % 1006,9 hPa 0,0 mm 6,0 km/h (2 Bft) W-NW 292 10,1 C 10,1 km/h (2 Bft)
28.07.2015 13:05 16,8 C 19,2 C 66 % 1006,9 hPa 0,0 mm 5,7 km/h (1 Bft) NW 315 10,4 C 12,2 km/h (2 Bft)
28.07.2015 13:10 17,2 C 20,0 C 66 % 1006,9 hPa 0,0 mm 5,7 km/h (1 Bft) W-NW 292 10,8 C 11,7 km/h (2 Bft)
28.07.2015 13:15 17,1 C 20,2 C 65 % 1006,9 hPa 0,0 mm 7,0 km/h (2 Bft) W-NW 292 10,5 C 12,7 km/h (3 Bft)
28.07.2015 13:20 17,1 C 20,0 C 64 % 1006,9 hPa 0,0 mm 8,0 km/h (2 Bft) W-NW 292 10,2 C 18,1 km/h (3 Bft)
28.07.2015 13:25 17,1 C 19,7 C 64 % 1006,9 hPa 0,0 mm 9,3 km/h (2 Bft) W-NW 292 10,2 C 9,3 km/h (2 Bft)
28.07.2015 13:30 17,2 C 19,7 C 64 % 1006,8 hPa 0,0 mm 11,4 km/h (2 Bft) W 270 10,3 C 11,7 km/h (2 Bft)
28.07.2015 13:35 17,2 C 19,8 C 64 % 1006,8 hPa 0,0 mm 8,8 km/h (2 Bft) SW 225 10,3 C 6,7 km/h (2 Bft)
28.07.2015 13:40 17,2 C 20,1 C 64 % 1006,8 hPa 0,0 mm 5,2 km/h (1 Bft) W 270 10,3 C 10,1 km/h (2 Bft)
28.07.2015 13:45 17,2 C 20,0 C 64 % 1006,8 hPa 0,0 mm 4,9 km/h (1 Bft) NW 315 10,3 C 6,5 km/h (2 Bft)
28.07.2015 13:50 17,4 C 20,4 C 64 % 1006,6 hPa 0,0 mm 6,7 km/h (2 Bft) W-SW 247 10,5 C 14,5 km/h (3 Bft)
28.07.2015 13:55 17,5 C 20,8 C 64 % 1006,6 hPa 0,0 mm 6,7 km/h (2 Bft) W 270 10,6 C 17,6 km/h (3 Bft)
28.07.2015 14:00 17,2 C 20,3 C 63 % 1006,6 hPa 0,0 mm 8,3 km/h (2 Bft) W-SW 247 10,1 C 12,4 km/h (3 Bft)
28.07.2015 14:05 17,2 C 20,0 C 63 % 1006,6 hPa 0,0 mm 8,5 km/h (2 Bft) NW 315 10,1 C 14,8 km/h (3 Bft)
28.07.2015 14:10 17,2 C 19,8 C 63 % 1006,6 hPa 0,0 mm 9,1 km/h (2 Bft) W 270 10,1 C 19,2 km/h (3 Bft)
28.07.2015 14:15 17,2 C 19,7 C 63 % 1006,6 hPa 0,0 mm 9,1 km/h (2 Bft) W 270 10,1 C 8,8 km/h (2 Bft)
28.07.2015 14:20 17,2 C 19,6 C 64 % 1006,6 hPa 0,0 mm 7,3 km/h (2 Bft) W 270 10,3 C 8,3 km/h (2 Bft)
28.07.2015 14:25 17,3 C 19,8 C 64 % 1006,6 hPa 0,0 mm 7,5 km/h (2 Bft) NO 45 10,4 C 2,6 km/h (1 Bft)
28.07.2015 14:30 17,7 C 20,6 C 63 % 1006,4 hPa 0,0 mm 7,8 km/h (2 Bft) S-SW 202 10,6 C 8,3 km/h (2 Bft)
28.07.2015 14:35 17,8 C 21,0 C 63 % 1006,4 hPa 0,0 mm 6,2 km/h (2 Bft) NW 315 10,7 C 6,7 km/h (2 Bft)
28.07.2015 14:40 17,6 C 21,0 C 63 % 1006,4 hPa 0,0 mm 6,7 km/h (2 Bft) W-NW 292 10,5 C 11,1 km/h (2 Bft)
28.07.2015 14:45 17,6 C 20,8 C 63 % 1006,4 hPa 0,0 mm 7,0 km/h (2 Bft) W-SW 247 10,5 C 5,2 km/h (1 Bft)
28.07.2015 14:50 17,3 C 20,0 C 62 % 1006,6 hPa 0,0 mm 9,1 km/h (2 Bft) NW 315 9,9 C 8,5 km/h (2 Bft)
28.07.2015 14:55 17,2 C 19,6 C 63 % 1006,6 hPa 0,0 mm 8,8 km/h (2 Bft) W-NW 292 10,1 C 9,3 km/h (2 Bft)
28.07.2015 15:00 17,2 C 19,3 C 63 % 1006,6 hPa 0,0 mm 9,3 km/h (2 Bft) W-NW 292 10,1 C 11,1 km/h (2 Bft)
28.07.2015 15:04 17,1 C 19,2 C 62 % 1006,6 hPa 0,0 mm 10,1 km/h (2 Bft) W 270 9,8 C 15,5 km/h (3 Bft)
28.07.2015 15:05 17,1 C 19,2 C 62 % 1006,6 hPa 0,0 mm 10,1 km/h (2 Bft) W 270 9,8 C 15,5 km/h (3 Bft)
28.07.2015 15:10 16,9 C 18,6 C 63 % 1006,5 hPa 0,0 mm 10,1 km/h (2 Bft) W 270 9,8 C 15,3 km/h (3 Bft)
28.07.2015 15:15 16,7 C 18,2 C 63 % 1006,5 hPa 0,0 mm 9,3 km/h (2 Bft) W 270 9,6 C 8,8 km/h (2 Bft)
28.07.2015 15:20 16,7 C 18,0 C 63 % 1006,5 hPa 0,0 mm 8,0 km/h (2 Bft) W 270 9,6 C 5,2 km/h (1 Bft)
28.07.2015 15:25 16,8 C 18,2 C 64 % 1006,5 hPa 0,0 mm 7,0 km/h (2 Bft) NW 315 10,0 C 3,9 km/h (1 Bft)
28.07.2015 15:30 16,8 C 18,3 C 64 % 1006,4 hPa 0,0 mm 5,7 km/h (1 Bft) SW 225 10,0 C 6,7 km/h (2 Bft)
28.07.2015 15:35 16,8 C 18,4 C 64 % 1006,4 hPa 0,0 mm 6,2 km/h (2 Bft) W-NW 292 10,0 C 16,3 km/h (3 Bft)
28.07.2015 15:40 16,7 C 18,1 C 64 % 1006,4 hPa 0,0 mm 7,8 km/h (2 Bft) W-SW 247 9,9 C 6,0 km/h (2 Bft)
28.07.2015 15:45 16,7 C 18,1 C 64 % 1006,4 hPa 0,0 mm 8,5 km/h (2 Bft) W 270 9,9 C 21,8 km/h (4 Bft)
28.07.2015 15:50 16,7 C 18,1 C 64 % 1006,2 hPa 0,0 mm 7,8 km/h (2 Bft) NW 315 9,9 C 9,1 km/h (2 Bft)
28.07.2015 15:55 16,8 C 18,3 C 64 % 1006,2 hPa 0,0 mm 9,1 km/h (2 Bft) W-SW 247 10,0 C 14,8 km/h (3 Bft)
28.07.2015 16:00 16,8 C 18,3 C 64 % 1006,2 hPa 0,0 mm 9,3 km/h (2 Bft) W-SW 247 10,0 C 6,5 km/h (2 Bft)
28.07.2015 16:05 16,7 C 18,3 C 64 % 1006,2 hPa 0,0 mm 9,3 km/h (2 Bft) W-NW 292 9,9 C 6,2 km/h (2 Bft)
28.07.2015 16:10 16,8 C 18,3 C 64 % 1006,3 hPa 0,0 mm 7,0 km/h (2 Bft) W 270 10,0 C 10,4 km/h (2 Bft)
28.07.2015 16:15 16,7 C 18,1 C 64 % 1006,3 hPa 0,0 mm 7,8 km/h (2 Bft) SO 135 9,9 C 12,2 km/h (2 Bft)
28.07.2015 16:20 16,6 C 17,9 C 64 % 1006,3 hPa 0,0 mm 11,1 km/h (2 Bft) W-NW 292 9,8 C 13,2 km/h (3 Bft)
28.07.2015 16:25 16,5 C 17,7 C 64 % 1006,3 hPa 0,0 mm 11,7 km/h (2 Bft) NW 315 9,7 C 11,1 km/h (2 Bft)
28.07.2015 16:30 16,6 C 17,8 C 65 % 1006,4 hPa 0,0 mm 8,5 km/h (2 Bft) SW 225 10,0 C 5,4 km/h (1 Bft)
28.07.2015 16:35 16,7 C 17,9 C 65 % 1006,4 hPa 0,0 mm 6,5 km/h (2 Bft) S 180 10,1 C 8,0 km/h (2 Bft)
28.07.2015 16:40 16,8 C 18,2 C 65 % 1006,4 hPa 0,0 mm 5,4 km/h (1 Bft) S-SW 202 10,2 C 5,7 km/h (1 Bft)
28.07.2015 16:45 16,9 C 18,4 C 65 % 1006,4 hPa 0,0 mm 5,4 km/h (1 Bft) W 270 10,3 C 5,2 km/h (1 Bft)
28.07.2015 16:50 17,0 C 18,6 C 65 % 1006,4 hPa 0,0 mm 6,5 km/h (2 Bft) W-SW 247 10,4 C 12,7 km/h (3 Bft)
28.07.2015 16:55 17,1 C 18,7 C 65 % 1006,4 hPa 0,0 mm 6,0 km/h (2 Bft) SW 225 10,5 C 9,3 km/h (2 Bft)
28.07.2015 17:00 17,2 C 19,0 C 65 % 1006,4 hPa 0,0 mm 4,7 km/h (1 Bft) W-NW 292 10,6 C 7,8 km/h (2 Bft)
28.07.2015 17:05 17,1 C 18,9 C 64 % 1006,4 hPa 0,0 mm 4,9 km/h (1 Bft) W-NW 292 10,2 C 16,8 km/h (3 Bft)
28.07.2015 17:10 17,1 C 18,7 C 65 % 1006,4 hPa 0,0 mm 6,7 km/h (2 Bft) W-SW 247 10,5 C 4,7 km/h (1 Bft)
28.07.2015 17:15 17,0 C 18,6 C 64 % 1006,4 hPa 0,0 mm 7,8 km/h (2 Bft) N 360 10,1 C 10,4 km/h (2 Bft)
28.07.2015 17:20 16,8 C 18,3 C 65 % 1006,4 hPa 0,0 mm 5,7 km/h (1 Bft) S-SW 202 10,2 C 6,7 km/h (2 Bft)
28.07.2015 17:25 16,8 C 18,2 C 65 % 1006,4 hPa 0,0 mm 5,7 km/h (1 Bft) NW 315 10,2 C 13,2 km/h (3 Bft)
28.07.2015 17:30 16,8 C 18,1 C 65 % 1006,4 hPa 0,0 mm 4,9 km/h (1 Bft) S-SO 157 10,2 C 4,4 km/h (1 Bft)
28.07.2015 17:35 16,8 C 18,1 C 65 % 1006,4 hPa 0,0 mm 4,4 km/h (1 Bft) W-NW 292 10,2 C 2,6 km/h (1 Bft)
28.07.2015 17:40 16,6 C 17,9 C 65 % 1006,4 hPa 0,0 mm 3,9 km/h (1 Bft) W-SW 247 10,0 C 0,0 km/h (0 Bft)
28.07.2015 17:45 16,5 C 17,8 C 65 % 1006,4 hPa 0,0 mm 4,1 km/h (1 Bft) SW 225 9,9 C 4,4 km/h (1 Bft)
28.07.2015 17:50 16,3 C 17,4 C 65 % 1006,4 hPa 0,0 mm 3,4 km/h (1 Bft) W-SW 247 9,7 C 2,6 km/h (1 Bft)
28.07.2015 17:55 16,2 C 17,2 C 66 % 1006,4 hPa 0,0 mm 3,4 km/h (1 Bft) W-NW 292 9,8 C 4,4 km/h (1 Bft)
28.07.2015 18:00 16,1 C 16,9 C 66 % 1006,4 hPa 0,0 mm 4,7 km/h (1 Bft) W 270 9,7 C 4,7 km/h (1 Bft)
28.07.2015 18:05 16,1 C 16,8 C 66 % 1006,4 hPa 0,0 mm 4,4 km/h (1 Bft) NO 45 9,7 C 2,8 km/h (1 Bft)
28.07.2015 18:10 16,2 C 16,7 C 67 % 1006,2 hPa 0,0 mm 2,1 km/h (1 Bft) S 180 10,1 C 4,4 km/h (1 Bft)
28.07.2015 18:15 16,2 C 16,8 C 67 % 1006,2 hPa 0,0 mm 1,3 km/h (1 Bft) S 180 10,1 C 0,0 km/h (0 Bft)
28.07.2015 18:20 16,2 C 16,9 C 67 % 1006,2 hPa 0,0 mm 1,6 km/h (1 Bft) W-SW 247 10,1 C 5,4 km/h (1 Bft)
28.07.2015 18:25 16,2 C 16,9 C 67 % 1006,2 hPa 0,0 mm 2,6 km/h (1 Bft) W 270 10,1 C 2,6 km/h (1 Bft)
28.07.2015 18:30 16,1 C 16,8 C 67 % 1006,3 hPa 0,0 mm 3,4 km/h (1 Bft) W 270 10,0 C 4,7 km/h (1 Bft)
28.07.2015 18:35 16,1 C 16,7 C 67 % 1006,3 hPa 0,0 mm 2,8 km/h (1 Bft) W-SW 247 10,0 C 3,6 km/h (1 Bft)
28.07.2015 18:40 16,1 C 16,6 C 67 % 1006,3 hPa 0,0 mm 2,3 km/h (1 Bft) W-NW 292 10,0 C 3,9 km/h (1 Bft)
28.07.2015 18:45 16,0 C 16,4 C 67 % 1006,3 hPa 0,0 mm 1,8 km/h (1 Bft) W-NW 292 9,9 C 0,0 km/h (0 Bft)
28.07.2015 18:50 15,9 C 16,3 C 68 % 1006,3 hPa 0,0 mm 1,6 km/h (1 Bft) SW 225 10,0 C 3,6 km/h (1 Bft)
28.07.2015 18:55 15,9 C 16,2 C 68 % 1006,3 hPa 0,0 mm 1,0 km/h (0 Bft) W-NW 292 10,0 C 0,0 km/h (0 Bft)
28.07.2015 19:00 15,8 C 16,0 C 68 % 1006,3 hPa 0,0 mm 1,0 km/h (0 Bft) S 180 9,9 C 2,8 km/h (1 Bft)
28.07.2015 19:05 15,7 C 15,8 C 68 % 1006,3 hPa 0,0 mm 0,8 km/h (0 Bft) SW 225 9,8 C 0,0 km/h (0 Bft)
28.07.2015 19:10 15,6 C 15,8 C 68 % 1006,4 hPa 0,0 mm 0,8 km/h (0 Bft) W 270 9,7 C 0,0 km/h (0 Bft)
28.07.2015 19:15 15,6 C 15,8 C 68 % 1006,4 hPa 0,0 mm 1,6 km/h (1 Bft) S 180 9,7 C 6,0 km/h (2 Bft)
28.07.2015 19:20 15,6 C 15,8 C 68 % 1006,4 hPa 0,0 mm 3,1 km/h (1 Bft) W 270 9,7 C 0,0 km/h (0 Bft)
28.07.2015 19:25 15,6 C 15,8 C 68 % 1006,4 hPa 0,0 mm 2,6 km/h (1 Bft) SW 225 9,7 C 2,6 km/h (1 Bft)
28.07.2015 19:30 15,6 C 15,7 C 68 % 1006,4 hPa 0,0 mm 3,1 km/h (1 Bft) SW 225 9,7 C 4,4 km/h (1 Bft)
28.07.2015 19:35 15,5 C 15,6 C 68 % 1006,4 hPa 0,0 mm 3,4 km/h (1 Bft) S 180 9,6 C 4,7 km/h (1 Bft)
28.07.2015 19:40 15,4 C 15,5 C 68 % 1006,4 hPa 0,0 mm 3,1 km/h (1 Bft) W 270 9,5 C 2,6 km/h (1 Bft)
28.07.2015 19:45 15,5 C 15,5 C 68 % 1006,4 hPa 0,0 mm 3,1 km/h (1 Bft) SW 225 9,6 C 7,0 km/h (2 Bft)
28.07.2015 19:50 15,4 C 15,5 C 68 % 1006,1 hPa 0,0 mm 3,4 km/h (1 Bft) SW 225 9,5 C 8,3 km/h (2 Bft)
28.07.2015 19:55 15,4 C 15,5 C 68 % 1006,1 hPa 0,0 mm 3,4 km/h (1 Bft) S-SW 202 9,5 C 0,0 km/h (0 Bft)
28.07.2015 20:00 15,4 C 15,4 C 68 % 1006,1 hPa 0,0 mm 2,3 km/h (1 Bft) S-SW 202 9,5 C 0,0 km/h (0 Bft)
28.07.2015 20:05 15,3 C 15,3 C 68 % 1006,1 hPa 0,0 mm 2,1 km/h (1 Bft) S 180 9,4 C 6,5 km/h (2 Bft)
28.07.2015 20:10 15,2 C 15,2 C 68 % 1005,9 hPa 0,0 mm 4,1 km/h (1 Bft) S-SW 202 9,3 C 6,5 km/h (2 Bft)
28.07.2015 20:15 15,1 C 15,1 C 69 % 1005,9 hPa 0,0 mm 3,9 km/h (1 Bft) S 180 9,5 C 5,7 km/h (1 Bft)
28.07.2015 20:20 15,0 C 15,0 C 69 % 1005,9 hPa 0,0 mm 1,0 km/h (0 Bft) S-SO 157 9,4 C 0,0 km/h (0 Bft)
28.07.2015 20:25 14,9 C 14,9 C 69 % 1005,9 hPa 0,0 mm 1,0 km/h (0 Bft) SO 135 9,3 C 0,0 km/h (0 Bft)
28.07.2015 20:30 14,8 C 14,8 C 70 % 1006,1 hPa 0,0 mm 0,5 km/h (0 Bft) S 180 9,4 C 0,0 km/h (0 Bft)
28.07.2015 20:35 14,7 C 14,7 C 71 % 1006,1 hPa 0,0 mm 0,0 km/h (0 Bft) S 180 9,5 C 0,0 km/h (0 Bft)
28.07.2015 20:40 14,6 C 14,6 C 71 % 1006,1 hPa 0,0 mm 0,0 km/h (0 Bft) S-SO 157 9,4 C 0,0 km/h (0 Bft)
28.07.2015 20:45 14,6 C 14,5 C 71 % 1006,1 hPa 0,0 mm 0,0 km/h (0 Bft) SW 225 9,4 C 0,0 km/h (0 Bft)
28.07.2015 20:50 14,6 C 14,5 C 72 % 1006,4 hPa 0,0 mm 0,0 km/h (0 Bft) S 180 9,6 C 0,0 km/h (0 Bft)
28.07.2015 20:55 14,6 C 14,5 C 72 % 1006,4 hPa 0,0 mm 0,0 km/h (0 Bft) S 180 9,6 C 0,0 km/h (0 Bft)
28.07.2015 21:00 14,5 C 14,4 C 73 % 1006,4 hPa 0,0 mm 0,0 km/h (0 Bft) SW 225 9,7 C 3,4 km/h (1 Bft)
28.07.2015 21:05 14,4 C 14,3 C 73 % 1006,6 hPa 0,0 mm 2,1 km/h (1 Bft) O-SO 112 9,6 C 0,0 km/h (0 Bft)
28.07.2015 21:10 14,4 C 14,3 C 73 % 1006,6 hPa 0,0 mm 2,1 km/h (1 Bft) O-SO 112 9,6 C 0,0 km/h (0 Bft)
28.07.2015 21:15 14,3 C 14,3 C 73 % 1006,6 hPa 0,0 mm 1,0 km/h (0 Bft) S-SO 157 9,5 C 0,0 km/h (0 Bft)
28.07.2015 21:20 14,4 C 14,4 C 73 % 1006,6 hPa 0,0 mm 0,8 km/h (0 Bft) S 180 9,6 C 0,0 km/h (0 Bft)
28.07.2015 21:25 14,4 C 14,3 C 73 % 1006,6 hPa 0,0 mm 0,8 km/h (0 Bft) S 180 9,6 C 0,0 km/h (0 Bft)
28.07.2015 21:30 14,3 C 14,3 C 73 % 1006,6 hPa 0,0 mm 0,3 km/h (0 Bft) S 180 9,5 C 3,4 km/h (1 Bft)
28.07.2015 21:35 14,4 C 14,3 C 73 % 1006,6 hPa 0,0 mm 0,8 km/h (0 Bft) SO 135 9,6 C 0,0 km/h (0 Bft)
28.07.2015 21:40 14,4 C 14,4 C 73 % 1006,6 hPa 0,0 mm 2,6 km/h (1 Bft) S 180 9,6 C 10,4 km/h (2 Bft)
28.07.2015 21:45 14,7 C 14,6 C 72 % 1006,6 hPa 0,0 mm 3,6 km/h (1 Bft) SO 135 9,7 C 0,0 km/h (0 Bft)
28.07.2015 21:50 14,6 C 14,6 C 72 % 1006,8 hPa 0,0 mm 4,1 km/h (1 Bft) SW 225 9,6 C 4,7 km/h (1 Bft)
28.07.2015 21:55 14,8 C 14,8 C 71 % 1006,8 hPa 0,0 mm 3,1 km/h (1 Bft) SO 135 9,6 C 0,0 km/h (0 Bft)
28.07.2015 22:00 14,9 C 14,9 C 71 % 1006,8 hPa 0,0 mm 3,9 km/h (1 Bft) SW 225 9,7 C 9,8 km/h (2 Bft)
28.07.2015 22:05 14,8 C 14,9 C 71 % 1006,8 hPa 0,0 mm 3,1 km/h (1 Bft) S-SO 157 9,6 C 0,0 km/h (0 Bft)
28.07.2015 22:10 14,8 C 14,8 C 71 % 1006,8 hPa 0,0 mm 4,1 km/h (1 Bft) S 180 9,6 C 7,3 km/h (2 Bft)
28.07.2015 22:15 14,9 C 14,9 C 70 % 1006,8 hPa 0,0 mm 4,1 km/h (1 Bft) S-SW 202 9,5 C 9,1 km/h (2 Bft)
28.07.2015 22:20 14,8 C 14,8 C 71 % 1006,8 hPa 0,0 mm 3,1 km/h (1 Bft) O-SO 112 9,6 C 2,6 km/h (1 Bft)
28.07.2015 22:25 14,6 C 14,6 C 71 % 1006,8 hPa 0,0 mm 1,6 km/h (1 Bft) O-NO 67 9,4 C 0,0 km/h (0 Bft)
28.07.2015 22:30 14,3 C 14,1 C 72 % 1006,8 hPa 0,0 mm 0,8 km/h (0 Bft) SO 135 9,3 C 0,0 km/h (0 Bft)
28.07.2015 22:35 14,1 C 13,8 C 74 % 1006,8 hPa 0,0 mm 0,8 km/h (0 Bft) O-SO 112 9,5 C 0,0 km/h (0 Bft)
28.07.2015 22:40 13,8 C 13,5 C 75 % 1006,8 hPa 0,0 mm 1,0 km/h (0 Bft) SO 135 9,4 C 0,0 km/h (0 Bft)
28.07.2015 22:45 13,7 C 13,4 C 76 % 1006,8 hPa 0,0 mm 0,8 km/h (0 Bft) O-SO 112 9,5 C 0,0 km/h (0 Bft)
28.07.2015 22:50 13,7 C 13,3 C 76 % 1006,8 hPa 0,0 mm 0,0 km/h (0 Bft) NO 45 9,5 C 0,0 km/h (0 Bft)
28.07.2015 22:55 13,6 C 13,2 C 77 % 1006,8 hPa 0,0 mm 0,0 km/h (0 Bft) S-SO 157 9,6 C 0,0 km/h (0 Bft)
28.07.2015 23:00 13,5 C 13,1 C 77 % 1006,8 hPa 0,0 mm 0,0 km/h (0 Bft) S-SO 157 9,5 C 0,0 km/h (0 Bft)
28.07.2015 23:05 13,4 C 13,0 C 78 % 1006,8 hPa 0,0 mm 0,5 km/h (0 Bft) O 90 9,6 C 0,0 km/h (0 Bft)
28.07.2015 23:10 13,3 C 13,0 C 78 % 1006,8 hPa 0,0 mm 0,5 km/h (0 Bft) O-NO 67 9,5 C 0,0 km/h (0 Bft)
28.07.2015 23:15 13,3 C 12,9 C 78 % 1006,8 hPa 0,0 mm 0,0 km/h (0 Bft) O-NO 67 9,5 C 0,0 km/h (0 Bft)
28.07.2015 23:20 13,2 C 12,9 C 79 % 1006,8 hPa 0,0 mm 0,0 km/h (0 Bft) W 270 9,6 C 0,0 km/h (0 Bft)
28.07.2015 23:25 13,2 C 12,9 C 79 % 1006,8 hPa 0,0 mm 0,5 km/h (0 Bft) S 180 9,6 C 3,6 km/h (1 Bft)
28.07.2015 23:30 13,1 C 12,8 C 79 % 1007,1 hPa 0,0 mm 1,3 km/h (1 Bft) SO 135 9,5 C 0,0 km/h (0 Bft)
28.07.2015 23:35 13,1 C 12,8 C 80 % 1007,1 hPa 0,0 mm 1,0 km/h (0 Bft) S 180 9,7 C 0,0 km/h (0 Bft)
28.07.2015 23:40 13,0 C 12,7 C 80 % 1007,1 hPa 0,0 mm 0,0 km/h (0 Bft) S 180 9,6 C 0,0 km/h (0 Bft)
28.07.2015 23:45 13,0 C 12,7 C 80 % 1007,1 hPa 0,0 mm 0,0 km/h (0 Bft) W-SW 247 9,6 C 0,0 km/h (0 Bft)
28.07.2015 23:50 12,9 C 12,7 C 82 % 1007,3 hPa 0,0 mm 1,0 km/h (0 Bft) W-SW 247 9,9 C 5,2 km/h (1 Bft)
28.07.2015 23:55 12,9 C 12,7 C 82 % 1007,3 hPa 0,0 mm 2,6 km/h (1 Bft) S-SW 202 9,9 C 7,3 km/h (2 Bft)
_ Min-Zeit 23:55 23:55 08:45 05:45 - 23:45 - - 06:25 23:45
Minimum _ 12,9 C 12,7 C 60 % 1005,4 hPa - 0,0 km/h (0 Bft) - - 7,3 C 0,0 km/h (0 Bft)
_ Max-Zeit 08:40 08:25 23:55 12:25 23:55 11:55 - - 13:10 11:50
Maximum _ 18,2 C 22,8 C 82 % 1007,4 hPa 0,0 mm 12,7 km/h
W-NW (3 Bft)
- - 10,8 C 31,6 km/h
S (5 Bft)
Durchschnitt _ 15,7 C 16,6 C 66 % 1006,5 hPa #0,0 mm 4,5 km/h (1 Bft) S - 9,3 C 6,3 km/h (2 Bft)